sensor_id;sensor_type;location;lat;lon;timestamp;pressure;altitude;pressure_sealevel;temperature;humidity
45323;BME280;31382;50.200;8.674;2023-04-02T00:02:29;99427.94;;;11.75;79.70
45323;BME280;31382;50.200;8.674;2023-04-02T00:07:31;99424.22;;;11.69;79.48
45323;BME280;31382;50.200;8.674;2023-04-02T00:12:33;99439.13;;;11.65;79.71
45323;BME280;31382;50.200;8.674;2023-04-02T00:17:35;99444.94;;;11.69;79.39
45323;BME280;31382;50.200;8.674;2023-04-02T00:22:42;99458.38;;;11.76;79.58
45323;BME280;31382;50.200;8.674;2023-04-02T00:27:45;99467.72;;;11.73;79.57
45323;BME280;31382;50.200;8.674;2023-04-02T00:32:46;99473.69;;;11.62;79.44
45323;BME280;31382;50.200;8.674;2023-04-02T00:37:48;99481.97;;;11.67;79.66
45323;BME280;31382;50.200;8.674;2023-04-02T00:42:52;99478.44;;;11.60;79.83
45323;BME280;31382;50.200;8.674;2023-04-02T00:47:56;99480.94;;;11.68;79.62
45323;BME280;31382;50.200;8.674;2023-04-02T00:53:03;99486.34;;;11.68;79.40
45323;BME280;31382;50.200;8.674;2023-04-02T00:58:35;99484.25;;;11.70;79.03
45323;BME280;31382;50.200;8.674;2023-04-02T01:03:37;99492.53;;;11.68;79.35
45323;BME280;31382;50.200;8.674;2023-04-02T01:09:01;99494.00;;;11.78;79.09
45323;BME280;31382;50.200;8.674;2023-04-02T01:14:13;99498.84;;;11.89;78.52
45323;BME280;31382;50.200;8.674;2023-04-02T01:24:38;99504.84;;;11.98;78.12
45323;BME280;31382;50.200;8.674;2023-04-02T01:29:43;99508.56;;;11.90;78.44
45323;BME280;31382;50.200;8.674;2023-04-02T01:34:48;99518.88;;;11.86;78.78
45323;BME280;31382;50.200;8.674;2023-04-02T01:39:59;99519.25;;;11.77;78.84
45323;BME280;31382;50.200;8.674;2023-04-02T01:45:08;99527.09;;;11.65;79.25
45323;BME280;31382;50.200;8.674;2023-04-02T01:50:19;99535.66;;;11.75;78.60
45323;BME280;31382;50.200;8.674;2023-04-02T02:00:33;99555.94;;;11.78;78.42
45323;BME280;31382;50.200;8.674;2023-04-02T02:05:36;99553.69;;;11.88;78.17
45323;BME280;31382;50.200;8.674;2023-04-02T02:10:38;99566.78;;;11.91;78.38
45323;BME280;31382;50.200;8.674;2023-04-02T02:15:39;99559.88;;;11.82;78.71
45323;BME280;31382;50.200;8.674;2023-04-02T02:20:41;99565.94;;;11.90;78.40
45323;BME280;31382;50.200;8.674;2023-04-02T02:25:44;99578.38;;;11.98;77.97
45323;BME280;31382;50.200;8.674;2023-04-02T02:30:49;99585.41;;;11.93;77.51
45323;BME280;31382;50.200;8.674;2023-04-02T02:35:56;99581.94;;;11.99;78.01
45323;BME280;31382;50.200;8.674;2023-04-02T02:41:06;99594.56;;;12.05;77.72
45323;BME280;31382;50.200;8.674;2023-04-02T02:46:12;99601.22;;;12.09;77.39
45323;BME280;31382;50.200;8.674;2023-04-02T02:51:24;99598.09;;;12.12;77.58
45323;BME280;31382;50.200;8.674;2023-04-02T02:56:27;99605.56;;;12.17;77.53
45323;BME280;31382;50.200;8.674;2023-04-02T03:01:30;99616.97;;;12.19;77.35
45323;BME280;31382;50.200;8.674;2023-04-02T03:06:32;99624.84;;;12.20;77.49
45323;BME280;31382;50.200;8.674;2023-04-02T03:11:51;99629.19;;;12.15;77.15
45323;BME280;31382;50.200;8.674;2023-04-02T03:17:04;99643.06;;;12.18;77.13
45323;BME280;31382;50.200;8.674;2023-04-02T03:22:22;99646.19;;;12.15;77.80
45323;BME280;31382;50.200;8.674;2023-04-02T03:27:37;99654.69;;;12.19;77.71
45323;BME280;31382;50.200;8.674;2023-04-02T03:32:42;99667.31;;;12.18;77.38
45323;BME280;31382;50.200;8.674;2023-04-02T03:37:52;99669.81;;;12.20;77.15
45323;BME280;31382;50.200;8.674;2023-04-02T03:43:03;99677.91;;;12.13;77.35
45323;BME280;31382;50.200;8.674;2023-04-02T03:48:15;99682.03;;;12.09;77.50
45323;BME280;31382;50.200;8.674;2023-04-02T03:53:22;99687.84;;;12.13;77.55
45323;BME280;31382;50.200;8.674;2023-04-02T03:58:33;99702.34;;;12.12;77.70
45323;BME280;31382;50.200;8.674;2023-04-02T04:03:53;99701.09;;;12.07;78.37
45323;BME280;31382;50.200;8.674;2023-04-02T04:09:26;99713.28;;;11.97;78.60
45323;BME280;31382;50.200;8.674;2023-04-02T04:14:34;99716.56;;;11.92;78.31
45323;BME280;31382;50.200;8.674;2023-04-02T04:19:43;99726.22;;;11.86;78.81
45323;BME280;31382;50.200;8.674;2023-04-02T04:24:46;99726.44;;;11.85;79.11
45323;BME280;31382;50.200;8.674;2023-04-02T04:35:19;99742.91;;;11.97;78.82
45323;BME280;31382;50.200;8.674;2023-04-02T04:40:25;99752.38;;;11.93;79.14
45323;BME280;31382;50.200;8.674;2023-04-02T04:50:59;99772.88;;;11.87;78.99
45323;BME280;31382;50.200;8.674;2023-04-02T04:56:03;99782.44;;;11.89;78.53
45323;BME280;31382;50.200;8.674;2023-04-02T05:01:39;99790.88;;;11.86;79.28
45323;BME280;31382;50.200;8.674;2023-04-02T05:07:02;99806.00;;;11.87;79.06
45323;BME280;31382;50.200;8.674;2023-04-02T05:23:28;99820.06;;;11.83;79.09
45323;BME280;31382;50.200;8.674;2023-04-02T05:29:05;99830.19;;;11.81;79.18
45323;BME280;31382;50.200;8.674;2023-04-02T05:34:01;99843.47;;;11.82;78.62
45323;BME280;31382;50.200;8.674;2023-04-02T05:39:07;99848.28;;;11.87;78.55
45323;BME280;31382;50.200;8.674;2023-04-02T05:44:17;99855.47;;;11.80;79.01
45323;BME280;31382;50.200;8.674;2023-04-02T05:49:37;99865.63;;;11.84;78.80
45323;BME280;31382;50.200;8.674;2023-04-02T05:54:54;99874.94;;;11.82;79.35
45323;BME280;31382;50.200;8.674;2023-04-02T06:00:04;99904.56;;;11.54;79.78
45323;BME280;31382;50.200;8.674;2023-04-02T06:05:15;99912.03;;;10.79;80.56
45323;BME280;31382;50.200;8.674;2023-04-02T06:10:21;99920.03;;;10.42;80.74
45323;BME280;31382;50.200;8.674;2023-04-02T06:15:25;99931.59;;;10.13;80.94
45323;BME280;31382;50.200;8.674;2023-04-02T06:20:27;99950.66;;;9.80;81.53
45323;BME280;31382;50.200;8.674;2023-04-02T06:25:45;99953.19;;;9.59;81.59
45323;BME280;31382;50.200;8.674;2023-04-02T06:30:48;99969.75;;;9.39;81.67
45323;BME280;31382;50.200;8.674;2023-04-02T06:35:53;99991.31;;;9.23;81.65
45323;BME280;31382;50.200;8.674;2023-04-02T06:41:01;100001.59;;;9.11;81.54
45323;BME280;31382;50.200;8.674;2023-04-02T06:46:12;100016.53;;;9.05;81.49
45323;BME280;31382;50.200;8.674;2023-04-02T06:51:19;100027.97;;;8.99;81.35
45323;BME280;31382;50.200;8.674;2023-04-02T07:01:31;100060.13;;;8.99;81.43
45323;BME280;31382;50.200;8.674;2023-04-02T07:06:33;100075.22;;;8.92;81.68
45323;BME280;31382;50.200;8.674;2023-04-02T07:11:35;100085.78;;;8.93;81.83
45323;BME280;31382;50.200;8.674;2023-04-02T07:16:36;100099.50;;;8.90;81.34
45323;BME280;31382;50.200;8.674;2023-04-02T07:21:38;100105.91;;;8.81;81.51
45323;BME280;31382;50.200;8.674;2023-04-02T07:26:40;100118.66;;;8.79;81.34
45323;BME280;31382;50.200;8.674;2023-04-02T07:31:42;100138.91;;;8.82;81.33
45323;BME280;31382;50.200;8.674;2023-04-02T07:36:44;100149.78;;;8.88;80.86
45323;BME280;31382;50.200;8.674;2023-04-02T07:41:56;100157.00;;;8.88;80.79
45323;BME280;31382;50.200;8.674;2023-04-02T07:46:58;100169.88;;;8.84;81.28
45323;BME280;31382;50.200;8.674;2023-04-02T07:51:59;100182.78;;;8.72;80.82
45323;BME280;31382;50.200;8.674;2023-04-02T07:57:01;100193.53;;;8.81;80.96
45323;BME280;31382;50.200;8.674;2023-04-02T08:02:02;100209.41;;;8.82;80.69
45323;BME280;31382;50.200;8.674;2023-04-02T08:07:04;100214.28;;;8.79;80.79
45323;BME280;31382;50.200;8.674;2023-04-02T08:12:06;100237.72;;;8.77;80.28
45323;BME280;31382;50.200;8.674;2023-04-02T08:17:07;100237.41;;;8.63;80.85
45323;BME280;31382;50.200;8.674;2023-04-02T08:22:09;100243.09;;;8.60;80.09
45323;BME280;31382;50.200;8.674;2023-04-02T08:27:14;100257.81;;;8.56;80.35
45323;BME280;31382;50.200;8.674;2023-04-02T08:32:16;100264.72;;;8.67;80.53
45323;BME280;31382;50.200;8.674;2023-04-02T08:37:18;100273.25;;;8.70;80.61
45323;BME280;31382;50.200;8.674;2023-04-02T08:42:28;100295.69;;;8.78;80.72
45323;BME280;31382;50.200;8.674;2023-04-02T08:47:36;100299.41;;;8.93;80.10
45323;BME280;31382;50.200;8.674;2023-04-02T08:52:40;100324.19;;;8.95;79.96
45323;BME280;31382;50.200;8.674;2023-04-02T09:03:42;100337.59;;;8.87;79.88
45323;BME280;31382;50.200;8.674;2023-04-02T09:08:47;100359.38;;;8.84;79.75
45323;BME280;31382;50.200;8.674;2023-04-02T09:13:56;100365.91;;;8.89;79.74
45323;BME280;31382;50.200;8.674;2023-04-02T09:18:59;100370.16;;;9.08;79.39
45323;BME280;31382;50.200;8.674;2023-04-02T09:24:01;100383.56;;;9.33;79.20
45323;BME280;31382;50.200;8.674;2023-04-02T09:34:27;100403.00;;;9.43;78.67
45323;BME280;31382;50.200;8.674;2023-04-02T09:39:29;100418.13;;;9.44;78.43
45323;BME280;31382;50.200;8.674;2023-04-02T09:44:31;100424.47;;;9.35;78.13
45323;BME280;31382;50.200;8.674;2023-04-02T09:49:35;100424.31;;;9.37;77.74
45323;BME280;31382;50.200;8.674;2023-04-02T09:54:37;100448.44;;;9.37;77.88
45323;BME280;31382;50.200;8.674;2023-04-02T09:59:42;100443.44;;;9.50;77.54
45323;BME280;31382;50.200;8.674;2023-04-02T10:04:45;100456.00;;;9.58;76.89
45323;BME280;31382;50.200;8.674;2023-04-02T10:09:57;100455.19;;;9.73;76.75
45323;BME280;31382;50.200;8.674;2023-04-02T10:15:00;100462.91;;;9.77;76.50
45323;BME280;31382;50.200;8.674;2023-04-02T10:20:21;100476.16;;;9.86;76.07
45323;BME280;31382;50.200;8.674;2023-04-02T10:25:27;100476.13;;;10.03;75.95
45323;BME280;31382;50.200;8.674;2023-04-02T10:36:27;100505.16;;;10.40;75.05
45323;BME280;31382;50.200;8.674;2023-04-02T10:41:46;100512.22;;;10.25;74.66
45323;BME280;31382;50.200;8.674;2023-04-02T10:47:03;100517.44;;;10.10;74.70
45323;BME280;31382;50.200;8.674;2023-04-02T10:52:14;100539.09;;;10.00;74.38
45323;BME280;31382;50.200;8.674;2023-04-02T10:57:39;100545.63;;;9.89;74.21
45323;BME280;31382;50.200;8.674;2023-04-02T11:03:04;100550.50;;;9.86;74.17
45323;BME280;31382;50.200;8.674;2023-04-02T11:13:56;100571.28;;;9.76;74.28
45323;BME280;31382;50.200;8.674;2023-04-02T11:19:23;100585.72;;;9.75;74.13
45323;BME280;31382;50.200;8.674;2023-04-02T11:24:29;100584.88;;;9.74;74.24
45323;BME280;31382;50.200;8.674;2023-04-02T11:30:00;100595.09;;;9.62;73.93
45323;BME280;31382;50.200;8.674;2023-04-02T11:34:59;100596.59;;;9.65;73.96
45323;BME280;31382;50.200;8.674;2023-04-02T11:50:38;100627.81;;;9.74;73.44
45323;BME280;31382;50.200;8.674;2023-04-02T11:55:45;100627.63;;;9.67;73.88
45323;BME280;31382;50.200;8.674;2023-04-02T12:11:08;100666.66;;;9.96;73.39
45323;BME280;31382;50.200;8.674;2023-04-02T12:16:11;100661.28;;;10.12;72.90
45323;BME280;31382;50.200;8.674;2023-04-02T12:21:15;100669.69;;;10.09;72.35
45323;BME280;31382;50.200;8.674;2023-04-02T12:26:27;100684.78;;;10.02;71.71
45323;BME280;31382;50.200;8.674;2023-04-02T12:31:30;100677.56;;;10.03;72.11
45323;BME280;31382;50.200;8.674;2023-04-02T12:36:33;100690.16;;;10.02;71.86
45323;BME280;31382;50.200;8.674;2023-04-02T12:41:36;100696.03;;;9.98;72.22
45323;BME280;31382;50.200;8.674;2023-04-02T12:46:38;100709.13;;;10.09;71.59
45323;BME280;31382;50.200;8.674;2023-04-02T12:51:41;100718.03;;;10.01;71.79
45323;BME280;31382;50.200;8.674;2023-04-02T12:56:43;100724.94;;;10.12;71.10
45323;BME280;31382;50.200;8.674;2023-04-02T13:01:56;100730.16;;;10.13;71.06
45323;BME280;31382;50.200;8.674;2023-04-02T13:06:57;100738.47;;;9.94;71.23
45323;BME280;31382;50.200;8.674;2023-04-02T13:11:59;100745.03;;;10.00;70.81
45323;BME280;31382;50.200;8.674;2023-04-02T13:17:01;100752.72;;;9.95;70.76
45323;BME280;31382;50.200;8.674;2023-04-02T13:22:26;100767.94;;;9.78;70.80
45323;BME280;31382;50.200;8.674;2023-04-02T13:27:24;100774.66;;;9.73;70.61
45323;BME280;31382;50.200;8.674;2023-04-02T13:32:25;100774.16;;;9.78;70.70
45323;BME280;31382;50.200;8.674;2023-04-02T13:37:27;100790.75;;;9.73;70.46
45323;BME280;31382;50.200;8.674;2023-04-02T13:42:29;100780.28;;;9.62;70.57
45323;BME280;31382;50.200;8.674;2023-04-02T13:47:31;100791.66;;;9.56;70.32
45323;BME280;31382;50.200;8.674;2023-04-02T13:52:32;100787.13;;;9.57;70.04
45323;BME280;31382;50.200;8.674;2023-04-02T13:57:33;100802.88;;;9.33;70.49
45323;BME280;31382;50.200;8.674;2023-04-02T14:02:39;100809.66;;;9.20;69.72
45323;BME280;31382;50.200;8.674;2023-04-02T14:13:10;100837.59;;;9.09;69.43
45323;BME280;31382;50.200;8.674;2023-04-02T14:23:49;100847.97;;;9.12;69.05
45323;BME280;31382;50.200;8.674;2023-04-02T14:29:07;100853.88;;;9.16;69.18
45323;BME280;31382;50.200;8.674;2023-04-02T14:34:52;100868.06;;;9.26;69.31
45323;BME280;31382;50.200;8.674;2023-04-02T14:40:20;100872.44;;;9.27;69.30
45323;BME280;31382;50.200;8.674;2023-04-02T14:50:38;100893.66;;;9.02;69.32
45323;BME280;31382;50.200;8.674;2023-04-02T14:55:46;100902.06;;;8.89;69.24
45323;BME280;31382;50.200;8.674;2023-04-02T15:01:02;100899.06;;;8.74;68.96
45323;BME280;31382;50.200;8.674;2023-04-02T15:06:09;100913.97;;;8.59;68.47
45323;BME280;31382;50.200;8.674;2023-04-02T15:16:19;100911.59;;;8.56;68.51
45323;BME280;31382;50.200;8.674;2023-04-02T15:21:28;100925.81;;;8.57;68.61
45323;BME280;31382;50.200;8.674;2023-04-02T15:31:42;100933.44;;;8.61;67.86
45323;BME280;31382;50.200;8.674;2023-04-02T15:37:00;100933.25;;;8.63;67.97
45323;BME280;31382;50.200;8.674;2023-04-02T15:42:21;100946.66;;;8.63;67.94
45323;BME280;31382;50.200;8.674;2023-04-02T15:47:35;100959.53;;;8.59;67.53
45323;BME280;31382;50.200;8.674;2023-04-02T15:52:57;100965.31;;;8.54;67.20
45323;BME280;31382;50.200;8.674;2023-04-02T15:58:48;100969.03;;;8.44;67.36
45323;BME280;31382;50.200;8.674;2023-04-02T16:04:18;100972.88;;;8.41;67.07
45323;BME280;31382;50.200;8.674;2023-04-02T16:09:28;100984.41;;;8.32;66.60
45323;BME280;31382;50.200;8.674;2023-04-02T16:14:31;100995.72;;;8.26;66.20
45323;BME280;31382;50.200;8.674;2023-04-02T16:20:04;101000.19;;;8.25;66.10
45323;BME280;31382;50.200;8.674;2023-04-02T16:25:18;101012.16;;;8.31;65.26
45323;BME280;31382;50.200;8.674;2023-04-02T16:30:49;101012.88;;;8.33;65.53
45323;BME280;31382;50.200;8.674;2023-04-02T16:41:27;101031.47;;;8.34;65.01
45323;BME280;31382;50.200;8.674;2023-04-02T16:46:47;101043.47;;;8.30;65.24
45323;BME280;31382;50.200;8.674;2023-04-02T16:52:00;101047.41;;;8.36;64.38
45323;BME280;31382;50.200;8.674;2023-04-02T16:57:19;101054.06;;;8.32;64.56
45323;BME280;31382;50.200;8.674;2023-04-02T17:02:36;101060.25;;;8.42;63.84
45323;BME280;31382;50.200;8.674;2023-04-02T17:18:21;101095.50;;;8.57;64.11
45323;BME280;31382;50.200;8.674;2023-04-02T17:23:26;101104.06;;;8.61;64.48
45323;BME280;31382;50.200;8.674;2023-04-02T17:28:30;101116.78;;;8.59;64.36
45323;BME280;31382;50.200;8.674;2023-04-02T17:33:37;101122.84;;;8.61;64.46
45323;BME280;31382;50.200;8.674;2023-04-02T17:38:46;101136.66;;;8.56;63.95
45323;BME280;31382;50.200;8.674;2023-04-02T17:49:42;101155.13;;;8.30;63.76
45323;BME280;31382;50.200;8.674;2023-04-02T17:55:26;101161.34;;;8.30;64.00
45323;BME280;31382;50.200;8.674;2023-04-02T18:00:56;101168.22;;;8.33;64.04
45323;BME280;31382;50.200;8.674;2023-04-02T18:16:49;101191.06;;;8.37;63.40
45323;BME280;31382;50.200;8.674;2023-04-02T18:22:22;101211.78;;;8.35;63.76
45323;BME280;31382;50.200;8.674;2023-04-02T18:27:37;101213.06;;;8.31;63.67
45323;BME280;31382;50.200;8.674;2023-04-02T18:43:36;101241.97;;;8.37;63.57
45323;BME280;31382;50.200;8.674;2023-04-02T18:48:51;101251.16;;;8.34;63.68
45323;BME280;31382;50.200;8.674;2023-04-02T18:59:35;101267.63;;;8.30;63.86
45323;BME280;31382;50.200;8.674;2023-04-02T19:04:39;101271.75;;;8.34;63.79
45323;BME280;31382;50.200;8.674;2023-04-02T19:09:44;101278.94;;;8.33;64.21
45323;BME280;31382;50.200;8.674;2023-04-02T19:14:52;101289.34;;;8.27;64.11
45323;BME280;31382;50.200;8.674;2023-04-02T19:20:19;101292.56;;;8.21;63.94
45323;BME280;31382;50.200;8.674;2023-04-02T19:25:35;101297.63;;;8.14;63.95
45323;BME280;31382;50.200;8.674;2023-04-02T19:41:43;101307.47;;;8.13;63.05
45323;BME280;31382;50.200;8.674;2023-04-02T19:46:48;101315.50;;;8.04;63.45
45323;BME280;31382;50.200;8.674;2023-04-02T19:51:51;101322.25;;;7.98;63.16
45323;BME280;31382;50.200;8.674;2023-04-02T19:56:54;101326.03;;;7.95;62.48
45323;BME280;31382;50.200;8.674;2023-04-02T20:01:56;101324.56;;;7.82;63.18
45323;BME280;31382;50.200;8.674;2023-04-02T20:06:59;101330.81;;;7.61;62.90
45323;BME280;31382;50.200;8.674;2023-04-02T20:12:01;101338.06;;;7.49;63.25
45323;BME280;31382;50.200;8.674;2023-04-02T20:17:03;101349.81;;;7.37;63.77
45323;BME280;31382;50.200;8.674;2023-04-02T20:22:05;101352.00;;;7.32;63.89
45323;BME280;31382;50.200;8.674;2023-04-02T20:27:07;101355.09;;;7.27;63.64
45323;BME280;31382;50.200;8.674;2023-04-02T20:32:09;101357.03;;;7.25;63.35
45323;BME280;31382;50.200;8.674;2023-04-02T20:37:11;101367.25;;;7.20;63.95
45323;BME280;31382;50.200;8.674;2023-04-02T20:42:12;101373.97;;;7.14;64.16
45323;BME280;31382;50.200;8.674;2023-04-02T20:47:14;101380.75;;;7.19;64.09
45323;BME280;31382;50.200;8.674;2023-04-02T20:52:16;101385.25;;;7.18;64.04
45323;BME280;31382;50.200;8.674;2023-04-02T20:57:17;101390.72;;;7.17;63.79
45323;BME280;31382;50.200;8.674;2023-04-02T21:02:21;101392.44;;;7.18;64.23
45323;BME280;31382;50.200;8.674;2023-04-02T21:07:23;101399.09;;;7.23;64.32
45323;BME280;31382;50.200;8.674;2023-04-02T21:12:24;101402.50;;;7.25;64.11
45323;BME280;31382;50.200;8.674;2023-04-02T21:17:26;101402.22;;;7.28;63.67
45323;BME280;31382;50.200;8.674;2023-04-02T21:22:28;101405.13;;;7.37;63.78
45323;BME280;31382;50.200;8.674;2023-04-02T21:27:29;101405.97;;;7.37;64.67
45323;BME280;31382;50.200;8.674;2023-04-02T21:32:31;101401.94;;;7.43;64.58
45323;BME280;31382;50.200;8.674;2023-04-02T21:37:36;101411.06;;;7.40;63.68
45323;BME280;31382;50.200;8.674;2023-04-02T21:42:37;101406.94;;;7.36;63.78
45323;BME280;31382;50.200;8.674;2023-04-02T21:47:38;101406.06;;;7.47;63.97
45323;BME280;31382;50.200;8.674;2023-04-02T21:52:40;101413.81;;;7.50;64.01
45323;BME280;31382;50.200;8.674;2023-04-02T21:57:41;101419.03;;;7.51;63.49
45323;BME280;31382;50.200;8.674;2023-04-02T22:02:43;101419.88;;;7.52;63.37
45323;BME280;31382;50.200;8.674;2023-04-02T22:07:44;101423.13;;;7.55;64.22
45323;BME280;31382;50.200;8.674;2023-04-02T22:12:46;101409.16;;;7.52;64.22
45323;BME280;31382;50.200;8.674;2023-04-02T22:17:47;101418.06;;;7.52;64.07
45323;BME280;31382;50.200;8.674;2023-04-02T22:22:49;101414.53;;;7.52;64.04
45323;BME280;31382;50.200;8.674;2023-04-02T22:27:51;101422.47;;;7.42;64.24
45323;BME280;31382;50.200;8.674;2023-04-02T22:32:52;101414.00;;;7.37;63.68
45323;BME280;31382;50.200;8.674;2023-04-02T22:37:54;101418.63;;;7.35;64.07
45323;BME280;31382;50.200;8.674;2023-04-02T22:42:55;101417.91;;;7.33;64.21
45323;BME280;31382;50.200;8.674;2023-04-02T22:47:57;101421.22;;;7.25;64.54
45323;BME280;31382;50.200;8.674;2023-04-02T22:52:58;101421.75;;;7.19;64.26
45323;BME280;31382;50.200;8.674;2023-04-02T22:58:00;101423.09;;;7.13;64.72
45323;BME280;31382;50.200;8.674;2023-04-02T23:03:01;101423.81;;;7.15;64.98
45323;BME280;31382;50.200;8.674;2023-04-02T23:08:03;101426.38;;;7.17;64.54
45323;BME280;31382;50.200;8.674;2023-04-02T23:13:05;101418.09;;;7.09;64.99
45323;BME280;31382;50.200;8.674;2023-04-02T23:18:07;101419.81;;;7.10;65.02
45323;BME280;31382;50.200;8.674;2023-04-02T23:23:08;101423.94;;;7.14;64.88
45323;BME280;31382;50.200;8.674;2023-04-02T23:28:11;101424.66;;;7.16;64.31
45323;BME280;31382;50.200;8.674;2023-04-02T23:33:13;101425.84;;;7.23;65.00
45323;BME280;31382;50.200;8.674;2023-04-02T23:38:14;101432.44;;;7.19;65.05
45323;BME280;31382;50.200;8.674;2023-04-02T23:43:16;101425.34;;;7.29;65.02
45323;BME280;31382;50.200;8.674;2023-04-02T23:48:17;101414.75;;;7.28;64.00
45323;BME280;31382;50.200;8.674;2023-04-02T23:53:19;101413.16;;;7.37;64.11
45323;BME280;31382;50.200;8.674;2023-04-02T23:58:20;101415.84;;;7.37;64.36
